Time;durP1;ratioP1;P1;durP2;ratioP2;P2;SDS_P1;SDS_P2;PMS_P1;PMS_P2;Temp;Humidity;BMP_temperature;BMP_pressure;BME280_temperature;BME280_humidity;BME280_pressure;Samples;Min_cycle;Max_cycle;Signal;HPM_P1;HPM_P2
2022/07/11 00:01:00;;;;;;;12.40;2.60;;;;;;;14.44;74.86;100579.98;109684;1258;23283;-75
2022/07/11 00:03:36;;;;;;;8.20;2.30;;;;;;;14.45;74.76;100576.67;109826;1257;23053;-75
2022/07/11 00:06:14;;;;;;;10.90;2.70;;;;;;;14.46;75.00;100576.86;110120;1253;22726;-75
2022/07/11 00:08:49;;;;;;;9.10;2.50;;;;;;;14.45;74.89;100575.88;110350;1254;21962;-75
2022/07/11 00:11:21;;;;;;;11.70;3.10;;;;;;;14.46;74.89;100575.10;110495;1253;22054;-75
2022/07/11 00:14:01;;;;;;;10.00;2.10;;;;;;;14.45;74.66;100573.79;110355;1254;21971;-75
2022/07/11 00:16:39;;;;;;;7.40;2.80;;;;;;;14.46;74.75;100576.20;110507;1253;21959;-75
2022/07/11 00:19:10;;;;;;;6.80;2.30;;;;;;;14.45;74.71;100576.65;110067;1254;23675;-75
2022/07/11 00:21:56;;;;;;;14.20;3.70;;;;;;;14.45;74.69;100573.95;110228;1254;21967;-75
2022/07/11 00:24:34;;;;;;;7.40;1.80;;;;;;;14.44;74.56;100572.44;110440;1253;21982;-76
2022/07/11 00:27:05;;;;;;;13.80;2.60;;;;;;;14.46;74.59;100570.16;110398;1254;22896;-76
2022/07/11 00:29:37;;;;;;;8.60;2.60;;;;;;;14.44;74.48;100565.73;110035;1257;22005;-76
2022/07/11 00:32:08;;;;;;;6.10;2.40;;;;;;;14.45;74.58;100565.24;110080;1256;23775;-76
2022/07/11 00:34:38;;;;;;;11.60;3.10;;;;;;;14.46;74.49;100568.32;110228;1256;22512;-76
2022/07/11 00:37:37;;;;;;;11.30;3.10;;;;;;;14.47;74.50;100561.45;110057;1256;21974;-75
2022/07/11 00:40:19;;;;;;;10.70;2.70;;;;;;;14.46;74.30;100560.76;110264;1255;23695;-76
2022/07/11 00:42:52;;;;;;;7.00;2.30;;;;;;;14.45;74.32;100557.64;110251;1256;22454;-75
2022/07/11 00:45:22;;;;;;;11.00;2.20;;;;;;;14.48;74.43;100558.77;110205;1256;21973;-74
2022/07/11 00:48:02;;;;;;;9.30;2.70;;;;;;;14.49;74.25;100559.11;110105;1253;23608;-75
2022/07/11 00:50:46;;;;;;;12.40;2.50;;;;;;;14.50;74.17;100557.83;110458;1253;22000;-77
2022/07/11 00:53:16;;;;;;;;;;;;;;;14.51;74.21;100556.02;110348;1254;21959;-75
2022/07/11 00:55:57;;;;;;;9.20;2.60;;;;;;;14.46;74.25;100559.16;110519;1253;24394;-75
2022/07/11 00:58:36;;;;;;;9.00;3.00;;;;;;;14.46;74.33;100557.56;110342;1253;23636;-75
2022/07/11 01:01:05;;;;;;;12.30;2.60;;;;;;;14.48;74.10;100555.59;109939;1260;23590;-75
2022/07/11 01:03:39;;;;;;;9.40;2.80;;;;;;;14.49;74.16;100556.44;110041;1258;21974;-75
2022/07/11 01:06:13;;;;;;;7.70;2.30;;;;;;;14.50;74.06;100556.84;109937;1258;22051;-75
2022/07/11 01:08:52;;;;;;;6.90;2.80;;;;;;;14.51;74.04;100556.77;110147;1259;23491;-75
2022/07/11 01:11:29;;;;;;;8.50;2.20;;;;;;;14.51;74.01;100553.89;109869;1259;22359;-75
2022/07/11 01:14:03;;;;;;;9.10;2.80;;;;;;;14.53;74.05;100554.98;109079;1261;21973;-77
2022/07/11 01:16:33;;;;;;;9.70;2.80;;;;;;;14.55;74.07;100551.35;109542;1261;22369;-75
2022/07/11 01:19:05;;;;;;;6.70;2.20;;;;;;;14.56;73.84;100551.04;109985;1256;21971;-74
2022/07/11 01:21:42;;;;;;;13.30;2.90;;;;;;;14.57;73.73;100551.29;110034;1257;21971;-75
2022/07/11 01:24:20;;;;;;;10.30;2.90;;;;;;;14.55;73.68;100552.34;110005;1256;22017;-74
2022/07/11 01:26:55;;;;;;;16.30;3.00;;;;;;;14.56;73.72;100552.79;109974;1258;21973;-75
2022/07/11 01:29:28;;;;;;;7.90;2.50;;;;;;;14.55;73.63;100552.02;110151;1257;22121;-75
2022/07/11 01:32:02;;;;;;;9.60;2.60;;;;;;;14.54;73.51;100557.97;110254;1253;23360;-75
2022/07/11 01:34:44;;;;;;;14.70;3.20;;;;;;;14.53;73.48;100548.41;110745;1253;22195;-75
2022/07/11 01:37:13;;;;;;;9.30;3.10;;;;;;;14.52;73.43;100551.65;110489;1252;21969;-75
2022/07/11 01:39:45;;;;;;;;;;;;;;;14.52;73.38;100550.22;110333;1254;21963;-76
2022/07/11 01:42:27;;;;;;;;;;;;;;;;;;;;;
2022/07/11 01:44:59;;;;;;;7.40;2.90;;;;;;;14.41;73.38;100549.79;110628;1253;22067;-76
2022/07/11 01:47:30;;;;;;;10.30;2.70;;;;;;;14.42;73.37;100550.74;110199;1257;22098;-76
2022/07/11 01:50:06;;;;;;;11.50;2.70;;;;;;;14.42;73.31;100551.55;110022;1256;21963;-76
2022/07/11 01:52:47;;;;;;;15.40;3.50;;;;;;;14.42;73.37;100548.61;110087;1256;23600;-76
2022/07/11 01:55:20;;;;;;;9.80;2.20;;;;;;;14.42;73.30;100547.45;110250;1256;21999;-76
2022/07/11 01:57:52;;;;;;;16.40;3.80;;;;;;;14.40;73.18;100545.19;110219;1257;23581;-76
2022/07/11 02:00:25;;;;;;;10.70;2.50;;;;;;;14.39;73.06;100543.05;109832;1257;22286;-75
2022/07/11 02:02:58;;;;;;;10.10;2.30;;;;;;;14.37;73.06;100544.63;110026;1256;23173;-75
2022/07/11 02:05:40;;;;;;;10.20;2.70;;;;;;;14.35;72.90;100541.04;110063;1253;23036;-75
2022/07/11 02:08:17;;;;;;;9.10;2.40;;;;;;;14.32;72.87;100536.95;110495;1252;22428;-75
2022/07/11 02:10:57;;;;;;;15.50;3.00;;;;;;;14.30;72.84;100536.11;110522;1253;22440;-75
2022/07/11 02:13:26;;;;;;;13.90;3.80;;;;;;;14.30;72.80;100536.69;110357;1252;23092;-76
2022/07/11 02:15:57;;;;;;;9.80;2.50;;;;;;;14.28;72.79;100538.06;110478;1253;23682;-75
2022/07/11 02:18:31;;;;;;;10.80;2.70;;;;;;;14.27;72.76;100538.29;110492;1253;21967;-75
2022/07/11 02:21:12;;;;;;;9.30;2.10;;;;;;;14.26;72.85;100538.36;110485;1254;21966;-75
2022/07/11 02:23:49;;;;;;;7.60;2.30;;;;;;;14.25;72.78;100537.09;110551;1254;22047;-76
2022/07/11 02:26:23;;;;;;;11.70;2.60;;;;;;;14.22;72.54;100538.85;110490;1253;22158;-75
2022/07/11 02:28:55;;;;;;;10.90;2.40;;;;;;;14.18;72.59;100539.63;110340;1254;21981;-75
2022/07/11 02:31:24;;;;;;;14.00;2.80;;;;;;;14.16;72.69;100540.91;110474;1254;21963;-74
2022/07/11 02:33:54;;;;;;;7.40;2.30;;;;;;;14.14;72.80;100542.36;110465;1254;23790;-75
2022/07/11 02:36:26;;;;;;;11.80;2.00;;;;;;;14.14;72.84;100544.69;110260;1257;23795;-75
2022/07/11 02:38:56;;;;;;;15.20;2.70;;;;;;;14.11;72.65;100542.65;109829;1260;23064;-75
2022/07/11 02:41:26;;;;;;;10.40;2.30;;;;;;;14.07;72.56;100542.23;109681;1261;21999;-76
2022/07/11 02:43:59;;;;;;;10.40;2.40;;;;;;;14.03;72.66;100536.75;109803;1260;21983;-76
2022/07/11 02:46:31;;;;;;;17.80;3.20;;;;;;;13.99;72.57;100540.63;109344;1264;23726;-76
2022/07/11 02:49:03;;;;;;;9.10;2.30;;;;;;;13.93;72.56;100542.76;108735;1268;22317;-76
2022/07/11 02:51:34;;;;;;;10.60;2.70;;;;;;;13.88;72.63;100538.36;108817;1268;23618;-76
2022/07/11 02:54:07;;;;;;;14.90;2.40;;;;;;;13.84;72.64;100539.73;108510;1273;23802;-75
2022/07/11 02:56:36;;;;;;;8.20;2.60;;;;;;;13.81;72.54;100544.02;108533;1270;23616;-74
2022/07/11 02:59:06;;;;;;;6.70;2.40;;;;;;;13.78;72.56;100537.89;108515;1270;22139;-74
2022/07/11 03:01:41;;;;;;;10.30;2.30;;;;;;;13.75;72.58;100536.46;108627;1270;23610;-76
2022/07/11 03:04:25;;;;;;;12.30;2.60;;;;;;;13.71;72.54;100538.83;108505;1265;23614;-74
2022/07/11 03:07:01;;;;;;;9.50;2.80;;;;;;;13.67;72.54;100545.34;108962;1267;21976;-74
2022/07/11 03:09:36;;;;;;;11.30;2.50;;;;;;;13.60;72.40;100545.26;108826;1266;23606;-76
2022/07/11 03:12:06;;;;;;;8.00;2.10;;;;;;;13.56;72.57;100547.19;108994;1260;21990;-74
2022/07/11 03:14:38;;;;;;;8.40;2.60;;;;;;;13.53;72.65;100546.74;110167;1254;22535;-75
2022/07/11 03:17:18;;;;;;;11.30;3.20;;;;;;;13.50;72.52;100548.73;110166;1258;21971;-75
2022/07/11 03:19:52;;;;;;;9.00;2.60;;;;;;;13.46;72.56;100547.86;109682;1260;21988;-75
2022/07/11 03:22:36;;;;;;;8.80;2.50;;;;;;;13.44;72.55;100546.86;109609;1260;21988;-75
2022/07/11 03:25:10;;;;;;;10.20;2.80;;;;;;;13.42;72.68;100547.20;109666;1259;21971;-74
2022/07/11 03:27:44;;;;;;;12.70;3.40;;;;;;;13.41;72.74;100552.52;108953;1268;22244;-74
2022/07/11 03:30:15;;;;;;;12.10;3.20;;;;;;;13.40;72.75;100555.25;109024;1267;23095;-75
2022/07/11 03:32:45;;;;;;;10.60;3.50;;;;;;;13.39;72.56;100556.95;108940;1267;23695;-75
2022/07/11 03:38:15;;;;;;;14.90;3.60;;;;;;;13.36;72.55;100557.34;109582;1258;22072;-75
2022/07/11 03:40:48;;;;;;;12.50;2.80;;;;;;;13.36;72.51;100556.11;109995;1257;22039;-75
2022/07/11 03:43:25;;;;;;;11.80;3.10;;;;;;;13.36;72.40;100555.92;110253;1258;21982;-75
2022/07/11 03:45:55;;;;;;;10.60;4.40;;;;;;;13.35;72.33;100559.23;110128;1253;22339;-75
2022/07/11 03:48:25;;;;;;;7.90;3.20;;;;;;;13.36;72.37;100559.41;110571;1251;23618;-75
2022/07/11 03:51:00;;;;;;;8.20;3.10;;;;;;;13.39;72.32;100560.67;110357;1251;21977;-75
2022/07/11 03:53:35;;;;;;;8.60;2.90;;;;;;;13.40;72.42;100566.04;110566;1251;22393;-74
2022/07/11 03:56:05;;;;;;;11.50;3.00;;;;;;;13.43;72.48;100568.34;110567;1251;21953;-75
2022/07/11 03:58:35;;;;;;;13.20;4.40;;;;;;;13.48;72.50;100569.34;109687;1260;22756;-74
2022/07/11 04:01:16;;;;;;;10.20;3.20;;;;;;;13.52;72.36;100566.20;109846;1260;22904;-74
2022/07/11 04:03:46;;;;;;;9.30;3.20;;;;;;;13.55;72.33;100563.80;109665;1260;22037;-74
2022/07/11 04:06:18;;;;;;;12.90;4.10;;;;;;;13.58;72.14;100563.33;109356;1264;22005;-72
2022/07/11 04:08:57;;;;;;;9.60;2.90;;;;;;;13.62;71.88;100564.71;109589;1261;23689;-75
2022/07/11 04:11:32;;;;;;;7.10;2.50;;;;;;;13.62;71.69;100564.35;109326;1264;21984;-75
2022/07/11 04:14:14;;;;;;;13.50;3.20;;;;;;;13.62;71.65;100565.88;109197;1266;22999;-75
2022/07/11 04:16:44;;;;;;;7.10;2.80;;;;;;;13.62;71.61;100565.09;108895;1267;22774;-75
2022/07/11 04:19:47;;;;;;;10.90;2.70;;;;;;;13.64;71.67;100568.75;109155;1267;22860;-75
2022/07/11 04:22:30;;;;;;;12.00;2.70;;;;;;;13.68;71.81;100565.58;108361;1276;24326;-75
2022/07/11 04:25:16;;;;;;;11.60;2.90;;;;;;;13.73;71.79;100562.17;108403;1276;22019;-75
2022/07/11 04:28:39;;;;;;;;;;;;;;;;;;;;;
2022/07/11 04:31:35;;;;;;;;;;;;;;;;;;;;;
2022/07/11 04:34:40;;;;;;;8.80;2.50;;;;;;;14.03;71.86;100565.60;108860;1270;22102;-75
2022/07/11 04:37:55;;;;;;;13.30;2.60;;;;;;;14.13;71.41;100564.75;108576;1273;21993;-75
2022/07/11 04:41:50;;;;;;;10.10;3.40;;;;;;;14.18;70.70;100563.05;108762;1265;22184;-75
2022/07/11 04:45:07;;;;;;;7.40;2.70;;;;;;;14.17;70.39;100561.24;108668;1273;22104;-75
2022/07/11 04:48:20;;;;;;;;;;;;;;;;;;;;;
2022/07/11 04:51:27;;;;;;;10.20;3.30;;;;;;;14.21;70.22;100557.92;108562;1273;22000;-75
2022/07/11 04:54:15;;;;;;;12.60;3.30;;;;;;;14.26;70.31;100559.79;108487;1273;21988;-75
2022/07/11 04:57:26;;;;;;;10.80;3.00;;;;;;;14.35;70.49;100560.48;108764;1270;23627;-75
2022/07/11 05:00:10;;;;;;;9.40;2.60;;;;;;;14.48;70.67;100561.44;109386;1262;21993;-75
2022/07/11 05:02:54;;;;;;;8.60;2.50;;;;;;;14.61;70.48;100562.30;109890;1260;22268;-75
2022/07/11 05:05:40;;;;;;;17.40;3.30;;;;;;;14.78;70.43;100563.77;109626;1262;23578;-75
2022/07/11 05:08:23;;;;;;;8.90;2.40;;;;;;;14.97;70.36;100569.23;109598;1259;21973;-75
2022/07/11 05:11:07;;;;;;;10.80;2.60;;;;;;;15.20;70.31;100569.14;110320;1256;22091;-74
2022/07/11 05:13:54;;;;;;;11.40;3.30;;;;;;;15.43;69.77;100565.48;110492;1256;23615;-75
2022/07/11 05:16:59;;;;;;;15.10;3.40;;;;;;;15.65;69.13;100566.35;110081;1256;21964;-75
2022/07/11 05:19:51;;;;;;;;;;;;;;;;;;;;;
2022/07/11 05:22:42;;;;;;;9.30;2.60;;;;;;;16.10;68.37;100571.67;109881;1261;21977;-76
2022/07/11 05:25:17;;;;;;;11.20;2.40;;;;;;;16.35;67.92;100575.80;109961;1260;21966;-76
2022/07/11 05:28:06;;;;;;;;;;;;;;;;;;;;;
2022/07/11 05:30:39;;;;;;;8.90;2.50;;;;;;;16.63;65.63;100579.40;109474;1263;23594;-76
2022/07/11 05:33:28;;;;;;;8.80;2.10;;;;;;;16.74;65.11;100582.66;109588;1263;21972;-76
2022/07/11 05:36:10;;;;;;;9.50;2.40;;;;;;;16.92;64.83;100581.61;109544;1263;22849;-76
2022/07/11 05:38:40;;;;;;;8.40;2.30;;;;;;;17.08;64.32;100579.98;109831;1259;21981;-77
2022/07/11 05:41:11;;;;;;;9.40;2.70;;;;;;;17.30;63.74;100577.27;109940;1258;23577;-78
2022/07/11 05:43:45;;;;;;;8.70;2.60;;;;;;;17.51;63.08;100570.96;109653;1258;22057;-78
2022/07/11 05:46:43;;;;;;;8.40;2.50;;;;;;;17.78;62.59;100576.45;110179;1258;23586;-78
2022/07/11 05:49:18;;;;;;;8.40;2.00;;;;;;;18.06;61.63;100575.13;109835;1259;22256;-77
2022/07/11 05:51:47;;;;;;;9.50;2.30;;;;;;;18.28;61.08;100576.40;109862;1259;24079;-78
2022/07/11 05:54:21;;;;;;;14.60;3.00;;;;;;;18.61;61.26;100573.35;109949;1257;21965;-78
2022/07/11 05:56:51;;;;;;;13.90;2.30;;;;;;;18.99;60.26;100577.73;109899;1257;21984;-78
2022/07/11 05:59:26;;;;;;;5.60;1.90;;;;;;;19.07;57.78;100582.98;109554;1262;21987;-77
2022/07/11 06:02:07;;;;;;;9.20;3.00;;;;;;;18.95;56.82;100589.83;109779;1261;22010;-79
2022/07/11 06:04:42;;;;;;;;;;;;;;;18.79;56.53;100598.48;109728;1260;22014;-77
2022/07/11 06:07:11;;;;;;;7.00;2.50;;;;;;;18.57;56.74;100601.93;109509;1256;22287;-78
2022/07/11 06:09:43;;;;;;;5.90;1.90;;;;;;;18.43;57.00;100597.93;110310;1256;23723;-79
2022/07/11 06:12:12;;;;;;;12.60;2.30;;;;;;;18.37;57.70;100603.14;110169;1256;21968;-78
2022/07/11 06:14:44;;;;;;;5.50;1.90;;;;;;;18.52;59.13;100602.48;109608;1260;21989;-78
2022/07/11 06:17:13;;;;;;;5.50;2.10;;;;;;;18.88;59.42;100598.34;109765;1257;21982;-78
2022/07/11 06:19:48;;;;;;;;;;;;;;;19.33;59.19;100598.21;109331;1264;21973;-79
2022/07/11 06:22:20;;;;;;;9.40;2.40;;;;;;;19.76;58.55;100602.86;109671;1261;22172;-78
2022/07/11 06:24:55;;;;;;;7.00;1.50;;;;;;;20.20;57.32;100604.73;109066;1267;22133;-79
2022/07/11 06:27:26;;;;;;;;;;;;;;;20.40;54.90;100606.09;109022;1266;21963;-78
2022/07/11 06:29:56;;;;;;;9.30;2.90;;;;;;;20.35;53.78;100606.45;108961;1267;21997;-78
2022/07/11 06:32:25;;;;;;;6.30;2.50;;;;;;;20.31;53.61;100607.83;109080;1261;23040;-78
2022/07/11 06:34:54;;;;;;;6.80;1.70;;;;;;;20.24;53.51;100607.20;109934;1261;22056;-78
2022/07/11 06:37:23;;;;;;;4.30;1.50;;;;;;;20.06;52.93;100608.38;109889;1258;22404;-79
2022/07/11 06:39:53;;;;;;;7.10;2.20;;;;;;;19.85;53.17;100609.52;110337;1256;23646;-78
2022/07/11 06:42:22;;;;;;;11.20;2.90;;;;;;;19.75;53.98;100612.16;110308;1253;23711;-78
2022/07/11 06:45:00;;;;;;;8.90;2.40;;;;;;;19.60;53.50;100615.21;110362;1254;22274;-78
2022/07/11 06:47:43;;;;;;;7.90;2.00;;;;;;;19.30;53.18;100618.31;110380;1255;21979;-75
2022/07/11 06:50:36;;;;;;;6.80;1.80;;;;;;;18.89;53.77;100619.59;109834;1259;22265;-76
2022/07/11 06:53:59;;;;;;;6.80;2.10;;;;;;;18.54;54.36;100621.46;110080;1257;23027;-78
2022/07/11 06:57:32;;;;;;;;;;;;;;;;;;;;;
2022/07/11 07:02:07;;;;;;;;;;;;;;;;;;;;;
2022/07/11 07:06:43;;;;;;;;;;;;;;;;;;;;;
2022/07/11 07:10:13;;;;;;;24.20;4.70;;;;;;;17.23;58.18;100627.71;109616;1262;22145;-79
2022/07/11 07:13:50;;;;;;;6.60;2.80;;;;;;;17.08;59.16;100623.27;109658;1262;23051;-77
2022/07/11 07:17:41;;;;;;;7.80;2.40;;;;;;;17.00;59.96;100614.34;109096;1267;22070;-76
2022/07/11 07:21:05;;;;;;;9.10;2.60;;;;;;;16.96;60.45;100601.04;108789;1270;23022;-77
2022/07/11 07:24:45;;;;;;;10.20;2.20;;;;;;;16.88;60.83;100582.35;107909;1283;22046;-77
2022/07/11 07:28:56;;;;;;;5.90;2.50;;;;;;;16.83;61.23;100568.60;107944;1283;22074;-78
2022/07/11 07:34:48;;;;;;;9.10;2.70;;;;;;;16.82;62.21;100571.46;107792;1285;22099;-76
2022/07/11 07:38:12;;;;;;;10.40;2.70;;;;;;;16.94;62.91;100568.08;107701;1279;22453;-78
2022/07/11 07:42:14;;;;;;;;;;;;;;;;;;;;;
2022/07/11 07:46:11;;;;;;;;;;;;;;;;;;;;;
2022/07/11 07:49:10;;;;;;;;;;;;;;;;;;;;;
2022/07/11 07:52:09;;;;;;;15.20;3.30;;;;;;;18.54;61.53;100566.41;109843;1260;23801;-79
2022/07/11 07:55:35;;;;;;;8.00;2.60;;;;;;;18.74;60.08;100564.80;110010;1259;22511;-80
2022/07/11 07:58:28;;;;;;;;;;;;;;;;;;;;;
2022/07/11 08:01:56;;;;;;;5.70;2.70;;;;;;;19.10;58.74;100565.73;109813;1258;21966;-76
2022/07/11 08:09:29;;;;;;;;;;;;;;;;;;;;;
2022/07/11 08:13:19;;;;;;;;;;;;;;;;;;;;;
2022/07/11 08:16:44;;;;;;;5.00;2.00;;;;;;;18.79;57.12;100575.98;108538;1274;22004;-76
2022/07/11 08:19:31;;;;;;;;;;;;;;;;;;;;;
2022/07/11 08:22:14;;;;;;;5.40;1.70;;;;;;;19.29;58.86;100580.58;108438;1274;22062;-77
2022/07/11 08:25:16;;;;;;;4.70;2.30;;;;;;;19.76;58.25;100582.75;108673;1271;23076;-76
2022/07/11 08:28:38;;;;;;;5.70;2.00;;;;;;;20.33;57.30;100580.76;108493;1274;23629;-76
2022/07/11 08:31:09;;;;;;;10.00;1.60;;;;;;;20.73;55.08;100578.86;108545;1274;21992;-77
2022/07/11 08:33:50;;;;;;;7.90;1.70;;;;;;;21.05;54.87;100578.88;108436;1274;22006;-76
2022/07/11 08:36:35;;;;;;;;;;;;;;;;;;;;;
2022/07/11 08:39:20;;;;;;;3.70;1.10;;;;;;;21.94;51.96;100585.93;107985;1283;22424;-77
2022/07/11 08:41:47;;;;;;;5.40;1.70;;;;;;;22.18;50.18;100582.56;107890;1283;22005;-77
2022/07/11 08:44:16;;;;;;;4.70;1.00;;;;;;;22.48;49.62;100584.33;107998;1281;23747;-77
2022/07/11 08:46:59;;;;;;;6.00;0.70;;;;;;;22.84;48.27;100587.41;108741;1262;23686;-77
2022/07/11 08:49:31;;;;;;;4.30;1.40;;;;;;;22.99;46.39;100588.98;109454;1261;23809;-77
2022/07/11 08:52:13;;;;;;;1.90;0.70;;;;;;;23.09;46.03;100590.26;109704;1261;21989;-77
2022/07/11 08:54:52;;;;;;;4.00;1.10;;;;;;;23.17;45.34;100588.95;109765;1261;21990;-76
2022/07/11 08:57:28;;;;;;;3.30;1.20;;;;;;;23.21;45.61;100589.70;109826;1256;22027;-77
2022/07/11 08:59:59;;;;;;;4.40;1.30;;;;;;;23.40;46.21;100586.92;110328;1256;22297;-76
2022/07/11 09:02:44;;;;;;;3.90;0.90;;;;;;;23.52;44.23;100587.91;110030;1258;23525;-76
2022/07/11 09:05:14;;;;;;;2.60;0.90;;;;;;;23.19;43.06;100587.89;110128;1256;21962;-77
2022/07/11 09:07:49;;;;;;;3.90;1.20;;;;;;;22.80;43.80;100585.69;110035;1261;22962;-77
2022/07/11 09:10:19;;;;;;;2.20;1.00;;;;;;;22.49;45.09;100583.15;109665;1261;22262;-77
2022/07/11 09:13:10;;;;;;;2.20;1.10;;;;;;;22.31;45.69;100581.52;109450;1261;22038;-77
2022/07/11 09:15:47;;;;;;;5.70;0.90;;;;;;;22.21;46.51;100576.38;109806;1261;23078;-77
2022/07/11 09:18:51;;;;;;;2.90;1.00;;;;;;;22.02;46.29;100579.42;109926;1260;22048;-77
2022/07/11 09:27:12;;;;;;;6.80;1.60;;;;;;;21.92;48.76;100581.41;108752;1270;23034;-76
2022/07/11 09:29:41;;;;;;;2.80;1.20;;;;;;;22.02;47.55;100574.95;108914;1267;23158;-76
2022/07/11 09:32:10;;;;;;;6.10;1.80;;;;;;;22.00;47.49;100572.27;108936;1267;23204;-76
2022/07/11 09:34:39;;;;;;;4.10;1.10;;;;;;;22.20;47.66;100569.73;109074;1267;23583;-74
2022/07/11 09:37:15;;;;;;;5.40;0.80;;;;;;;22.45;46.89;100568.88;109006;1267;23684;-74
2022/07/11 09:39:45;;;;;;;4.80;1.10;;;;;;;22.65;45.91;100570.21;109033;1264;22277;-76
2022/07/11 09:42:14;;;;;;;22.60;5.00;;;;;;;22.58;44.87;100577.36;109190;1264;23049;-75
2022/07/11 09:44:43;;;;;;;57.70;16.00;;;;;;;22.51;45.32;100571.59;109265;1263;24317;-75
2022/07/11 09:47:12;;;;;;;29.30;7.60;;;;;;;22.44;45.17;100575.77;109504;1264;22087;-73
2022/07/11 09:49:41;;;;;;;9.60;2.90;;;;;;;22.41;45.38;100580.98;109249;1264;23698;-74
2022/07/11 09:52:15;;;;;;;4.80;1.50;;;;;;;22.47;45.48;100575.37;109458;1264;22205;-74
2022/07/11 09:54:59;;;;;;;4.10;1.40;;;;;;;22.60;45.05;100573.02;109286;1263;23088;-74
2022/07/11 09:57:32;;;;;;;2.40;1.20;;;;;;;22.68;44.07;100576.52;109468;1259;22014;-74
2022/07/11 10:00:07;;;;;;;3.00;0.90;;;;;;;22.68;43.76;100566.83;109377;1264;22070;-74
2022/07/11 10:02:37;;;;;;;4.90;1.00;;;;;;;22.80;44.13;100566.00;109420;1264;21991;-74
2022/07/11 10:05:07;;;;;;;2.80;1.00;;;;;;;22.87;43.46;100567.52;109682;1263;22441;-74
2022/07/11 10:07:39;;;;;;;3.70;1.10;;;;;;;22.93;43.29;100566.14;109290;1264;22031;-73
2022/07/11 10:10:10;;;;;;;2.00;0.70;;;;;;;22.86;42.40;100568.22;109159;1264;21974;-73
2022/07/11 10:12:40;;;;;;;5.30;0.90;;;;;;;22.66;42.60;100566.83;109195;1264;21972;-74
2022/07/11 10:15:11;;;;;;;3.60;0.70;;;;;;;22.59;43.33;100561.97;109534;1263;23757;-74
2022/07/11 10:18:02;;;;;;;1.90;0.90;;;;;;;22.63;43.24;100560.27;108907;1263;23662;-74
2022/07/11 10:20:53;;;;;;;4.80;1.20;;;;;;;22.68;42.91;100560.58;109654;1263;23695;-75
2022/07/11 10:23:57;;;;;;;1.50;0.70;;;;;;;22.58;42.04;100563.02;109384;1264;21975;-74
2022/07/11 10:26:43;;;;;;;6.40;1.30;;;;;;;22.35;42.45;100561.48;109138;1267;21982;-75
2022/07/11 10:30:01;;;;;;;;;;;;;;;;;;;;;
2022/07/11 10:33:36;;;;;;;;;;;;;;;;;;;;;
2022/07/11 10:37:32;;;;;;;3.60;0.80;;;;;;;22.47;43.12;100576.06;108709;1278;23172;-77
2022/07/11 10:40:07;;;;;;;3.00;0.90;;;;;;;22.48;42.83;100579.70;108376;1277;22009;-76
2022/07/11 10:43:12;;;;;;;2.40;0.80;;;;;;;22.28;42.13;100584.10;107943;1282;22358;-77
2022/07/11 10:46:24;;;;;;;2.30;0.60;;;;;;;21.93;42.32;100583.80;108073;1282;23107;-77
2022/07/11 10:49:25;;;;;;;3.40;0.80;;;;;;;21.60;43.05;100584.41;107983;1282;22092;-76
2022/07/11 10:52:22;;;;;;;3.90;0.90;;;;;;;21.26;43.53;100582.77;108009;1282;22124;-77
2022/07/11 10:56:04;;;;;;;6.30;2.80;;;;;;;20.92;44.13;100592.95;108277;1270;22761;-77
2022/07/11 10:59:02;;;;;;;7.10;1.10;;;;;;;20.64;45.25;100607.54;108698;1273;24999;-76
2022/07/11 11:02:09;;;;;;;3.70;0.70;;;;;;;20.39;45.42;100620.84;108631;1273;23699;-77
2022/07/11 11:04:59;;;;;;;3.20;0.40;;;;;;;20.04;45.54;100612.88;108386;1278;22004;-76
2022/07/11 11:07:44;;;;;;;1.80;0.30;;;;;;;19.74;46.35;100611.92;108371;1276;21982;-76
2022/07/11 11:10:38;;;;;;;0.60;0.40;;;;;;;19.58;47.37;100613.51;108392;1276;24577;-78
2022/07/11 11:13:20;;;;;;;0.50;0.30;;;;;;;19.56;48.55;100624.73;108722;1273;22082;-77
2022/07/11 11:15:57;;;;;;;1.20;0.40;;;;;;;19.62;49.26;100628.52;108465;1273;22133;-77
2022/07/11 11:18:59;;;;;;;4.10;0.30;;;;;;;19.65;49.93;100625.95;108691;1273;23024;-77
2022/07/11 11:22:12;;;;;;;2.00;0.70;;;;;;;19.73;51.02;100618.52;108687;1273;22058;-77
2022/07/11 11:24:49;;;;;;;0.70;0.30;;;;;;;19.81;51.02;100613.31;108693;1273;23599;-76
2022/07/11 11:28:05;;;;;;;0.50;0.30;;;;;;;19.72;50.39;100611.41;108840;1270;22048;-75
2022/07/11 11:30:34;;;;;;;0.50;0.30;;;;;;;19.65;50.48;100611.80;108999;1268;22033;-77
2022/07/11 11:33:16;;;;;;;2.00;0.40;;;;;;;19.60;50.80;100607.90;108928;1267;23576;-76
2022/07/11 11:36:04;;;;;;;2.50;0.80;;;;;;;19.59;51.14;100605.09;109858;1261;21980;-75
2022/07/11 11:38:38;;;;;;;2.90;0.50;;;;;;;19.65;51.91;100604.22;109820;1259;22012;-76
2022/07/11 11:41:08;;;;;;;2.00;0.60;;;;;;;19.69;51.70;100604.27;109653;1262;23073;-77
2022/07/11 11:43:37;;;;;;;2.00;0.50;;;;;;;19.67;51.28;100605.77;108926;1267;23681;-76
2022/07/11 11:46:07;;;;;;;3.00;0.70;;;;;;;19.62;51.18;100603.27;108861;1267;23764;-75
2022/07/11 11:48:39;;;;;;;1.20;0.50;;;;;;;19.62;51.47;100600.67;108963;1264;21994;-76
2022/07/11 11:51:12;;;;;;;3.00;0.80;;;;;;;19.64;51.39;100595.48;108841;1267;22148;-76
2022/07/11 11:53:48;;;;;;;2.30;0.50;;;;;;;19.67;51.29;100597.19;108732;1270;266191;-75
2022/07/11 11:56:43;;;;;;;0.70;0.30;;;;;;;19.74;51.43;100595.67;108975;1267;22088;-76
2022/07/11 11:59:13;;;;;;;3.20;1.10;;;;;;;19.87;51.63;100593.80;108450;1276;22000;-76
2022/07/11 12:01:48;;;;;;;5.10;0.90;;;;;;;20.00;51.22;100611.77;108589;1270;21980;-75
2022/07/11 12:04:17;;;;;;;3.60;0.50;;;;;;;19.96;50.22;100614.29;108665;1270;22434;-76
2022/07/11 12:06:49;;;;;;;8.60;0.50;;;;;;;19.85;50.30;100610.85;108612;1273;24157;-75
2022/07/11 12:10:04;;;;;;;0.90;0.40;;;;;;;19.75;50.28;100611.13;108828;1268;21991;-76
2022/07/11 12:15:26;;;;;;;0.30;0.20;;;;;;;19.59;49.63;100613.52;108976;1267;22007;-75
2022/07/11 12:17:59;;;;;;;0.60;0.30;;;;;;;19.60;49.20;100612.11;108564;1273;21991;-77
2022/07/11 12:20:42;;;;;;;0.60;0.30;;;;;;;19.59;48.70;100611.59;108721;1273;21992;-75
2022/07/11 12:23:17;;;;;;;0.80;0.30;;;;;;;19.51;48.08;100603.58;108333;1276;23028;-77
2022/07/11 12:25:49;;;;;;;3.40;2.40;;;;;;;19.45;47.82;100601.83;108078;1279;22016;-77
2022/07/11 12:28:19;;;;;;;0.60;0.40;;;;;;;19.48;47.69;100598.50;107955;1282;21998;-79
2022/07/11 12:30:56;;;;;;;0.50;0.30;;;;;;;19.51;47.01;100600.52;107938;1282;22016;-75
2022/07/11 12:33:25;;;;;;;1.00;0.50;;;;;;;19.51;47.26;100592.86;107755;1285;24515;-75
2022/07/11 12:35:58;;;;;;;1.30;0.40;;;;;;;19.57;47.23;100598.59;107827;1279;23067;-75
2022/07/11 12:38:48;;;;;;;1.80;0.60;;;;;;;19.57;47.01;100600.77;108099;1276;23623;-76
2022/07/11 12:41:17;;;;;;;4.00;0.60;;;;;;;19.51;47.24;100589.73;108522;1273;22158;-76
2022/07/11 12:46:39;;;;;;;1.00;0.50;;;;;;;19.49;48.01;100594.11;108405;1276;21992;-76
2022/07/11 12:49:12;;;;;;;1.30;0.50;;;;;;;19.47;48.34;100595.08;108278;1279;21988;-76
2022/07/11 12:51:46;;;;;;;2.70;0.40;;;;;;;19.46;48.53;100594.47;108404;1276;22123;-78
2022/07/11 12:54:17;;;;;;;2.70;0.30;;;;;;;19.50;48.71;100595.05;109141;1261;23634;-75
2022/07/11 12:56:57;;;;;;;2.00;0.40;;;;;;;19.54;48.85;100599.44;109472;1261;23040;-76
2022/07/11 12:59:29;;;;;;;2.70;0.40;;;;;;;19.58;48.79;100597.33;108909;1270;22002;-77
2022/07/11 13:02:03;;;;;;;1.80;0.40;;;;;;;19.59;48.51;100592.67;108870;1270;21984;-76
2022/07/11 13:04:45;;;;;;;3.70;0.80;;;;;;;19.58;48.23;100593.96;109064;1264;21997;-75
2022/07/11 13:10:27;;;;;;;2.70;0.50;;;;;;;19.48;47.80;100595.12;109965;1260;23653;-78
2022/07/11 13:12:56;;;;;;;2.50;0.30;;;;;;;19.46;47.86;100600.57;109728;1261;23038;-78
2022/07/11 13:15:27;;;;;;;4.20;0.50;;;;;;;19.47;47.76;100599.86;109405;1264;21992;-79
2022/07/11 13:17:56;;;;;;;1.00;0.40;;;;;;;19.47;47.63;100595.41;109067;1264;22022;-78
2022/07/11 13:20:27;;;;;;;2.10;0.30;;;;;;;19.50;47.81;100595.06;109586;1264;23053;-76
2022/07/11 13:22:59;;;;;;;1.50;0.50;;;;;;;19.53;47.83;100590.13;109649;1263;22078;-79
2022/07/11 13:25:29;;;;;;;1.30;0.30;;;;;;;19.55;47.89;100584.50;109380;1263;23000;-78